Time;durP1;ratioP1;P1;durP2;ratioP2;P2;SDS_P1;SDS_P2;PMS_P1;PMS_P2;Temp;Humidity;BMP_temperature;BMP_pressure;BME280_temperature;BME280_humidity;BME280_pressure;Samples;Min_cycle;Max_cycle;Signal;HPM_P1;HPM_P2
2023/08/12 00:01:17;;;;;;;21.53;19.33;;;21.90;99.90;;;;;;5015059;28;20473;-81
2023/08/12 00:03:44;;;;;;;20.70;18.57;;;21.90;99.90;;;;;;5015171;28;20453;-83
2023/08/12 00:06:11;;;;;;;21.03;18.80;;;21.90;99.90;;;;;;5014863;28;20449;-83
2023/08/12 00:08:37;;;;;;;22.40;20.10;;;21.90;99.90;;;;;;5015537;28;20456;-82
2023/08/12 00:11:06;;;;;;;22.60;20.20;;;21.80;99.90;;;;;;5015368;28;20476;-82
2023/08/12 00:13:32;;;;;;;22.13;19.93;;;21.80;99.90;;;;;;5015385;28;20534;-83
2023/08/12 00:15:59;;;;;;;20.90;18.80;;;21.80;99.90;;;;;;5017721;28;20482;-82
2023/08/12 00:18:26;;;;;;;22.03;19.70;;;21.90;99.90;;;;;;5026782;28;20486;-84
2023/08/12 00:20:53;;;;;;;20.30;18.30;;;21.80;99.90;;;;;;5024240;28;20919;-82
2023/08/12 00:23:20;;;;;;;22.30;19.93;;;21.80;99.90;;;;;;5035487;28;20495;-84
2023/08/12 00:25:47;;;;;;;22.47;20.17;;;21.80;99.90;;;;;;5034899;28;20449;-83
2023/08/12 00:28:15;;;;;;;19.97;17.97;;;21.80;99.90;;;;;;5035533;28;20448;-84
2023/08/12 00:30:42;;;;;;;19.87;17.23;;;21.80;99.90;;;;;;5033405;28;20469;-83
2023/08/12 00:33:08;;;;;;;19.40;17.50;;;21.80;99.90;;;;;;5015407;28;20464;-83
2023/08/12 00:35:35;;;;;;;17.17;15.37;;;21.80;99.90;;;;;;5020868;28;20454;-84
2023/08/12 00:38:02;;;;;;;16.70;15.00;;;21.80;99.90;;;;;;5034292;28;20441;-83
2023/08/12 00:40:29;;;;;;;16.57;14.87;;;21.80;99.90;;;;;;5035829;28;20484;-83
2023/08/12 00:42:56;;;;;;;17.03;15.33;;;21.70;99.90;;;;;;5015231;28;20456;-83
2023/08/12 00:45:24;;;;;;;17.40;15.60;;;21.70;99.90;;;;;;5015606;28;20839;-82
2023/08/12 00:47:51;;;;;;;16.03;14.60;;;21.70;99.90;;;;;;5015614;28;20456;-83
2023/08/12 00:50:18;;;;;;;15.57;14.07;;;21.70;99.90;;;;;;5015423;28;20457;-82
2023/08/12 00:52:45;;;;;;;15.83;14.33;;;21.70;99.90;;;;;;5015931;28;20544;-82
2023/08/12 00:55:12;;;;;;;15.70;14.30;;;21.70;99.90;;;;;;5015168;28;20446;-80
2023/08/12 00:57:39;;;;;;;14.47;13.07;;;21.70;99.90;;;;;;5016050;28;20445;-83
2023/08/12 01:00:07;;;;;;;15.10;12.87;;;21.70;99.90;;;;;;5016272;28;20862;-81
2023/08/12 01:02:36;;;;;;;15.70;14.20;;;21.60;99.90;;;;;;5016101;28;20463;-82
2023/08/12 01:05:03;;;;;;;14.73;13.43;;;21.70;99.90;;;;;;5031585;28;20457;-83
2023/08/12 01:07:30;;;;;;;13.50;12.30;;;21.70;99.90;;;;;;5034204;28;20477;-82
2023/08/12 01:09:56;;;;;;;14.07;12.87;;;21.70;99.90;;;;;;5035306;28;20536;-84
2023/08/12 01:12:33;;;;;;;15.50;14.00;;;21.70;99.90;;;;;;5034802;28;20567;-84
2023/08/12 01:15:07;;;;;;;16.30;14.60;;;21.70;99.90;;;;;;5016538;28;20461;-83
2023/08/12 01:17:38;;;;;;;16.47;14.77;;;21.70;99.90;;;;;;5015377;28;20532;-82
2023/08/12 01:20:09;;;;;;;15.53;14.07;;;21.60;99.90;;;;;;5016632;28;21031;-83
2023/08/12 01:22:40;;;;;;;15.00;13.60;;;21.60;99.90;;;;;;5017173;28;20457;-83
2023/08/12 01:25:09;;;;;;;15.80;14.30;;;21.60;99.90;;;;;;5016378;28;20462;-82
2023/08/12 01:27:36;;;;;;;15.13;13.37;;;21.60;99.90;;;;;;5016948;28;20454;-84
2023/08/12 01:30:05;;;;;;;14.47;13.07;;;21.60;99.90;;;;;;5017077;28;20485;-83
2023/08/12 01:32:42;;;;;;;13.70;12.30;;;21.60;99.90;;;;;;5017456;28;20446;-84
2023/08/12 01:35:17;;;;;;;13.20;11.90;;;21.60;99.90;;;;;;5016630;28;20548;-84
2023/08/12 01:37:45;;;;;;;13.33;11.93;;;21.60;99.90;;;;;;5017580;28;20453;-84
2023/08/12 01:40:16;;;;;;;14.40;13.00;;;21.50;99.90;;;;;;5017932;28;20485;-83
2023/08/12 01:42:43;;;;;;;14.37;12.93;;;21.50;99.90;;;;;;5025796;28;20528;-84
2023/08/12 01:45:10;;;;;;;14.80;13.23;;;21.50;99.90;;;;;;5030287;28;20543;-84
2023/08/12 01:47:37;;;;;;;17.33;13.13;;;21.50;99.90;;;;;;5037866;28;20449;-82
2023/08/12 01:50:04;;;;;;;14.03;12.53;;;21.50;99.90;;;;;;5050545;28;20476;-81
2023/08/12 01:52:31;;;;;;;14.33;12.90;;;21.50;99.90;;;;;;5049606;28;20536;-83
2023/08/12 01:54:58;;;;;;;14.57;13.00;;;21.50;99.90;;;;;;5032565;28;20485;-83
2023/08/12 01:57:26;;;;;;;16.93;14.17;;;21.50;99.90;;;;;;5023046;28;21027;-83
2023/08/12 01:59:53;;;;;;;16.03;14.40;;;21.50;99.90;;;;;;5013742;28;20489;-82
2023/08/12 02:02:20;;;;;;;15.53;14.00;;;21.50;99.90;;;;;;5013312;28;20508;-83
2023/08/12 02:04:47;;;;;;;14.00;12.60;;;21.50;99.90;;;;;;5013251;28;20453;-82
2023/08/12 02:07:13;;;;;;;16.70;15.00;;;21.50;99.90;;;;;;5014139;28;20449;-83
2023/08/12 02:09:40;;;;;;;15.23;13.73;;;21.50;99.90;;;;;;5017636;28;20445;-83
2023/08/12 02:12:08;;;;;;;16.27;14.67;;;21.50;99.90;;;;;;5017503;28;20472;-84
2023/08/12 02:14:36;;;;;;;16.00;14.30;;;21.50;99.90;;;;;;5016537;28;20457;-84
2023/08/12 02:17:05;;;;;;;14.17;12.87;;;21.50;99.90;;;;;;5017323;28;20957;-83
2023/08/12 02:19:32;;;;;;;16.10;14.70;;;21.50;99.90;;;;;;5017394;28;20469;-82
2023/08/12 02:21:59;;;;;;;14.97;13.40;;;21.50;99.90;;;;;;5017274;28;20572;-83
2023/08/12 02:24:26;;;;;;;14.50;13.00;;;21.50;99.90;;;;;;5017961;28;20453;-84
2023/08/12 02:26:52;;;;;;;15.63;14.00;;;21.50;99.90;;;;;;5016879;28;20463;-82
2023/08/12 02:29:19;;;;;;;14.97;13.47;;;21.50;99.90;;;;;;5017473;28;20458;-84
2023/08/12 02:31:47;;;;;;;16.00;14.50;;;21.50;99.90;;;;;;5017885;28;20472;-83
2023/08/12 02:34:14;;;;;;;14.20;12.80;;;21.50;99.90;;;;;;5017109;28;20840;-83
2023/08/12 02:36:41;;;;;;;15.40;13.73;;;21.50;99.90;;;;;;5017549;28;20446;-83
2023/08/12 02:39:08;;;;;;;16.50;14.93;;;21.50;99.90;;;;;;5017861;28;20457;-83
2023/08/12 02:41:35;;;;;;;15.63;14.23;;;21.50;99.90;;;;;;5016614;28;21049;-83
2023/08/12 02:44:02;;;;;;;15.33;13.93;;;21.50;99.90;;;;;;5017898;28;20444;-82
2023/08/12 02:46:29;;;;;;;15.03;13.73;;;21.50;99.90;;;;;;5017685;28;20457;-81
2023/08/12 02:48:57;;;;;;;15.10;13.67;;;21.50;99.90;;;;;;5017662;28;20445;-82
2023/08/12 02:51:24;;;;;;;16.37;13.93;;;21.50;99.90;;;;;;5017133;28;20479;-82
2023/08/12 02:53:50;;;;;;;14.97;13.60;;;21.50;99.90;;;;;;5017855;28;20450;-81
2023/08/12 02:56:17;;;;;;;13.77;12.47;;;21.50;99.90;;;;;;5016794;28;20453;-80
2023/08/12 02:58:44;;;;;;;13.80;12.43;;;21.50;99.90;;;;;;5017596;28;20536;-82
2023/08/12 03:01:11;;;;;;;16.03;14.53;;;21.50;99.90;;;;;;5017028;28;20861;-82
2023/08/12 03:03:38;;;;;;;17.00;15.40;;;21.50;99.90;;;;;;5017797;28;20536;-82
2023/08/12 03:06:06;;;;;;;15.93;14.53;;;21.50;99.90;;;;;;5016833;28;20456;-82
2023/08/12 03:08:33;;;;;;;16.77;15.03;;;21.50;99.90;;;;;;5016629;28;20465;-82
2023/08/12 03:11:00;;;;;;;16.23;14.63;;;21.50;99.90;;;;;;5017425;28;20724;-83
2023/08/12 03:13:27;;;;;;;15.40;14.00;;;21.50;99.90;;;;;;5017757;28;20838;-83
2023/08/12 03:15:54;;;;;;;17.50;14.80;;;21.40;99.90;;;;;;5017135;28;20454;-83
2023/08/12 03:18:21;;;;;;;17.57;15.80;;;21.40;99.90;;;;;;5016779;28;20445;-82
2023/08/12 03:20:48;;;;;;;16.40;14.67;;;21.40;99.90;;;;;;5017262;28;20503;-82
2023/08/12 03:23:16;;;;;;;17.10;15.50;;;21.40;99.90;;;;;;5016898;28;20802;-83
2023/08/12 03:25:43;;;;;;;18.30;16.50;;;21.40;99.90;;;;;;5016976;28;20458;-82
2023/08/12 03:28:09;;;;;;;18.03;15.00;;;21.40;99.90;;;;;;5017373;28;20549;-83
2023/08/12 03:30:36;;;;;;;17.73;16.00;;;21.40;99.90;;;;;;5017310;28;20854;-82
2023/08/12 03:33:03;;;;;;;16.83;15.13;;;21.40;99.90;;;;;;5017662;28;20449;-83
2023/08/12 03:35:30;;;;;;;16.87;15.20;;;21.40;99.90;;;;;;5017219;28;20463;-83
2023/08/12 03:37:57;;;;;;;18.83;17.00;;;21.40;99.90;;;;;;5017860;28;20446;-82
2023/08/12 03:40:25;;;;;;;17.53;15.63;;;21.40;99.90;;;;;;5017364;28;20864;-82
2023/08/12 03:42:52;;;;;;;18.53;16.83;;;21.40;99.90;;;;;;5018185;28;20441;-82
2023/08/12 03:45:19;;;;;;;18.67;16.83;;;21.40;99.90;;;;;;5018354;28;20450;-82
2023/08/12 03:47:46;;;;;;;16.53;14.87;;;21.40;99.90;;;;;;5018933;28;20541;-84
2023/08/12 03:50:12;;;;;;;17.63;15.60;;;21.40;99.90;;;;;;5018383;28;20939;-83
2023/08/12 03:52:39;;;;;;;17.93;16.23;;;21.40;99.90;;;;;;5019420;28;20464;-83
2023/08/12 03:55:07;;;;;;;16.73;15.13;;;21.40;99.90;;;;;;5019561;28;20521;-81
2023/08/12 03:57:35;;;;;;;17.23;15.50;;;21.40;99.90;;;;;;5020305;28;20446;-83
2023/08/12 04:00:03;;;;;;;17.77;16.17;;;21.40;99.90;;;;;;5028369;28;20495;-82
2023/08/12 04:02:29;;;;;;;16.30;14.53;;;21.40;99.90;;;;;;5027807;28;20464;-82
2023/08/12 04:04:56;;;;;;;15.97;14.37;;;21.30;99.90;;;;;;5017867;28;20446;-83
2023/08/12 04:07:24;;;;;;;17.93;16.23;;;21.40;99.90;;;;;;5017318;28;20901;-82
2023/08/12 04:09:51;;;;;;;17.00;15.20;;;21.30;99.90;;;;;;5017488;28;20649;-82
2023/08/12 04:12:17;;;;;;;16.10;14.70;;;21.40;99.90;;;;;;5017196;28;20465;-83
2023/08/12 04:14:45;;;;;;;17.60;15.80;;;21.40;99.90;;;;;;5017222;28;20456;-83
2023/08/12 04:17:12;;;;;;;15.70;14.20;;;21.40;99.90;;;;;;5017879;28;20537;-83
2023/08/12 04:19:40;;;;;;;15.37;13.97;;;21.40;99.90;;;;;;5024448;28;20462;-83
2023/08/12 04:22:07;;;;;;;17.53;15.83;;;21.40;99.90;;;;;;5027862;28;20581;-82
2023/08/12 04:24:34;;;;;;;17.90;16.20;;;21.40;99.90;;;;;;5025819;28;20442;-82
2023/08/12 04:27:01;;;;;;;17.80;16.07;;;21.40;99.90;;;;;;5024372;28;20460;-83
2023/08/12 04:29:28;;;;;;;14.77;13.37;;;21.40;99.90;;;;;;5022696;28;20926;-82
2023/08/12 04:31:57;;;;;;;15.63;14.03;;;21.40;99.90;;;;;;5025637;28;20474;-82
2023/08/12 04:34:24;;;;;;;16.40;14.83;;;21.40;99.90;;;;;;5024652;28;20537;-83
2023/08/12 04:36:51;;;;;;;16.40;14.67;;;21.40;99.90;;;;;;5023768;28;20452;-84
2023/08/12 04:39:21;;;;;;;16.13;14.60;;;21.40;99.90;;;;;;5026338;28;20533;-82
2023/08/12 04:41:48;;;;;;;16.83;15.23;;;21.40;99.90;;;;;;5024264;28;20485;-83
2023/08/12 04:44:15;;;;;;;16.37;14.77;;;21.40;99.90;;;;;;5017941;28;20453;-83
2023/08/12 04:46:42;;;;;;;15.53;14.03;;;21.40;99.90;;;;;;5018252;28;20476;-83
2023/08/12 04:49:10;;;;;;;16.43;14.97;;;21.40;99.90;;;;;;5017838;28;20453;-84
2023/08/12 04:51:38;;;;;;;14.90;13.37;;;21.40;99.90;;;;;;5016951;28;20487;-84
2023/08/12 04:54:05;;;;;;;14.07;12.60;;;21.40;99.90;;;;;;5024600;28;21110;-83
2023/08/12 04:56:32;;;;;;;18.03;14.73;;;21.40;99.90;;;;;;5031194;28;20444;-84
2023/08/12 04:58:59;;;;;;;15.30;13.80;;;21.50;99.90;;;;;;5033231;28;20489;-83
2023/08/12 05:01:26;;;;;;;13.43;12.13;;;21.50;99.90;;;;;;5017403;28;21037;-84
2023/08/12 05:03:52;;;;;;;15.03;13.57;;;21.50;99.90;;;;;;5018166;28;20468;-83
2023/08/12 05:06:20;;;;;;;15.20;13.70;;;21.50;99.90;;;;;;5016834;28;20446;-83
2023/08/12 05:08:47;;;;;;;15.33;13.93;;;21.50;99.90;;;;;;5019352;28;20472;-84
2023/08/12 05:11:14;;;;;;;15.43;14.13;;;21.50;99.90;;;;;;5029408;28;20910;-84
2023/08/12 05:13:41;;;;;;;15.97;14.47;;;21.50;99.90;;;;;;5042071;28;20448;-84
2023/08/12 05:16:08;;;;;;;14.93;13.50;;;21.50;99.90;;;;;;5042926;28;20539;-84
2023/08/12 05:18:34;;;;;;;14.77;13.43;;;21.50;99.90;;;;;;5045498;28;20491;-82
2023/08/12 05:21:01;;;;;;;15.00;13.47;;;21.50;99.90;;;;;;5044185;22;20833;-82
2023/08/12 05:23:29;;;;;;;15.40;13.67;;;21.50;99.90;;;;;;5056793;28;20455;-84
2023/08/12 05:25:56;;;;;;;14.13;12.93;;;21.60;99.90;;;;;;5057407;28;20482;-83
2023/08/12 05:28:23;;;;;;;13.10;11.80;;;21.60;99.90;;;;;;5058803;28;20447;-84
2023/08/12 05:30:50;;;;;;;13.43;11.90;;;21.60;99.90;;;;;;5055855;28;20507;-84
2023/08/12 05:33:17;;;;;;;13.10;11.80;;;21.60;99.90;;;;;;5057238;28;20489;-82
2023/08/12 05:35:44;;;;;;;12.60;11.40;;;21.70;99.90;;;;;;5044585;28;20455;-83
2023/08/12 05:38:11;;;;;;;13.60;12.27;;;21.70;99.90;;;;;;5036243;28;20536;-83
2023/08/12 05:40:39;;;;;;;12.70;11.40;;;21.70;99.90;;;;;;5019612;28;20481;-84
2023/08/12 05:43:06;;;;;;;12.27;11.00;;;21.70;99.90;;;;;;5024766;28;20512;-83
2023/08/12 05:45:32;;;;;;;14.37;12.97;;;21.80;99.90;;;;;;5057690;28;20487;-83
2023/08/12 05:47:59;;;;;;;15.17;12.37;;;21.80;99.90;;;;;;5056710;28;20515;-86
2023/08/12 05:50:26;;;;;;;12.97;11.77;;;21.80;99.90;;;;;;5036518;28;20467;-83
2023/08/12 05:52:53;;;;;;;12.90;11.50;;;21.80;99.90;;;;;;5031702;28;20493;-83
2023/08/12 05:55:20;;;;;;;12.47;11.37;;;21.80;99.90;;;;;;5015348;28;20560;-85
2023/08/12 05:57:48;;;;;;;12.23;11.13;;;21.80;99.90;;;;;;5015508;28;20445;-83
2023/08/12 06:00:15;;;;;;;11.40;10.50;;;21.80;99.90;;;;;;5026714;28;20544;-84
2023/08/12 06:02:42;;;;;;;12.73;11.53;;;21.80;99.90;;;;;;5034641;28;20491;-84
2023/08/12 06:05:10;;;;;;;11.80;10.73;;;21.80;99.90;;;;;;5025678;28;20968;-84
2023/08/12 06:07:37;;;;;;;11.77;10.70;;;21.80;99.90;;;;;;5025936;28;20572;-83
2023/08/12 06:10:04;;;;;;;10.60;9.60;;;21.70;99.90;;;;;;5017874;28;20896;-83
2023/08/12 06:12:31;;;;;;;11.07;10.07;;;21.70;99.90;;;;;;5028294;28;20898;-83
2023/08/12 06:15:01;;;;;;;10.93;9.90;;;21.80;99.90;;;;;;5034275;28;20525;-85
2023/08/12 06:17:27;;;;;;;10.67;9.60;;;21.70;99.90;;;;;;5017280;28;20488;-85
2023/08/12 06:19:54;;;;;;;9.77;8.77;;;21.70;99.90;;;;;;5018058;28;20528;-85
2023/08/12 06:22:21;;;;;;;10.47;9.40;;;21.80;99.90;;;;;;5031893;28;20553;-84
2023/08/12 06:24:48;;;;;;;9.43;8.53;;;21.80;99.90;;;;;;5019179;28;20508;-84
2023/08/12 06:27:15;;;;;;;9.30;8.43;;;21.80;99.90;;;;;;5044933;28;20456;-83
2023/08/12 06:29:41;;;;;;;8.23;7.43;;;21.80;99.90;;;;;;5044948;28;20485;-83
2023/08/12 06:32:12;;;;;;;8.83;8.03;;;21.80;99.90;;;;;;5020894;28;20533;-84
2023/08/12 06:34:39;;;;;;;11.53;8.17;;;21.80;99.90;;;;;;5026961;28;20465;-85
2023/08/12 06:37:06;;;;;;;9.20;7.90;;;21.80;99.90;;;;;;5030132;28;20481;-82
2023/08/12 06:39:33;;;;;;;8.17;7.47;;;21.70;99.90;;;;;;5026267;28;20440;-85
2023/08/12 06:42:00;;;;;;;7.60;6.90;;;21.80;99.90;;;;;;5023579;28;20489;-86
2023/08/12 06:44:26;;;;;;;8.87;7.00;;;21.80;99.90;;;;;;5019381;28;20497;-85
2023/08/12 06:46:53;;;;;;;8.67;7.83;;;21.80;99.90;;;;;;5023551;28;20453;-85
2023/08/12 06:49:21;;;;;;;9.00;7.03;;;21.70;99.90;;;;;;5024536;28;20469;-85
2023/08/12 06:51:48;;;;;;;9.93;6.87;;;21.70;99.90;;;;;;5031371;28;20458;-85
2023/08/12 06:54:15;;;;;;;7.60;6.20;;;21.70;99.90;;;;;;5036615;28;20523;-85
2023/08/12 06:56:42;;;;;;;6.27;5.70;;;21.70;99.90;;;;;;5040833;28;20835;-85
2023/08/12 06:59:09;;;;;;;6.90;6.20;;;21.60;99.90;;;;;;5042774;28;20449;-86
2023/08/12 07:01:36;;;;;;;6.87;6.17;;;21.60;99.90;;;;;;5042942;28;20546;-85
2023/08/12 07:04:02;;;;;;;6.53;5.93;;;21.60;99.90;;;;;;5036187;28;20525;-84
2023/08/12 07:06:31;;;;;;;6.77;6.10;;;21.60;99.90;;;;;;5021109;28;20477;-84
2023/08/12 07:08:57;;;;;;;6.53;5.80;;;21.60;99.90;;;;;;5035912;28;20524;-86
2023/08/12 07:11:24;;;;;;;6.73;5.87;;;21.50;99.90;;;;;;5040519;28;20523;-86
2023/08/12 07:13:51;;;;;;;8.37;6.03;;;21.50;99.90;;;;;;5040809;28;20433;-85
2023/08/12 07:16:18;;;;;;;5.90;5.40;;;21.50;99.90;;;;;;5040392;28;20531;-83
2023/08/12 07:18:45;;;;;;;8.20;5.37;;;21.50;99.90;;;;;;5039177;28;20842;-84
2023/08/12 07:21:11;;;;;;;7.57;5.87;;;21.50;99.90;;;;;;5039349;28;20572;-84
2023/08/12 07:23:40;;;;;;;7.13;5.90;;;21.40;99.90;;;;;;5038995;28;20957;-84
2023/08/12 07:26:07;;;;;;;6.40;5.70;;;21.40;99.90;;;;;;5019808;28;20454;-83
2023/08/12 07:28:33;;;;;;;6.50;4.53;;;21.40;99.90;;;;;;5020660;28;20517;-86
2023/08/12 07:31:01;;;;;;;5.77;5.27;;;21.30;99.90;;;;;;5018602;28;20974;-84
2023/08/12 07:33:28;;;;;;;5.53;4.97;;;21.30;99.90;;;;;;5018599;28;20460;-83
2023/08/12 07:35:55;;;;;;;5.93;5.13;;;21.30;99.90;;;;;;5018542;28;20469;-84
2023/08/12 07:38:22;;;;;;;5.00;4.50;;;21.40;99.90;;;;;;5019499;28;20450;-83
2023/08/12 07:40:51;;;;;;;5.47;4.50;;;21.40;99.90;;;;;;5020869;28;20499;-84
2023/08/12 07:43:18;;;;;;;5.23;4.83;;;21.50;99.90;;;;;;5018485;28;20608;-86
2023/08/12 07:45:44;;;;;;;5.73;4.80;;;21.50;99.90;;;;;;5017803;28;20540;-84
2023/08/12 07:48:11;;;;;;;6.83;5.00;;;21.60;99.90;;;;;;5020001;28;20972;-83
2023/08/12 07:50:38;;;;;;;5.13;4.63;;;21.60;99.90;;;;;;5018889;28;20445;-84
2023/08/12 07:53:05;;;;;;;5.70;4.57;;;21.60;99.90;;;;;;5020264;28;20528;-82
2023/08/12 07:55:32;;;;;;;6.07;4.30;;;21.60;99.90;;;;;;5033395;28;20452;-83
2023/08/12 07:58:00;;;;;;;5.50;4.37;;;21.70;99.90;;;;;;5038075;28;20533;-84
2023/08/12 08:00:27;;;;;;;6.23;5.07;;;21.70;99.90;;;;;;5038594;28;20449;-83
2023/08/12 08:02:54;;;;;;;4.90;4.20;;;21.80;99.90;;;;;;5036775;28;20497;-82
2023/08/12 08:05:21;;;;;;;4.97;4.47;;;21.80;99.90;;;;;;5036593;28;20511;-86
2023/08/12 08:07:48;;;;;;;4.57;3.97;;;21.90;99.90;;;;;;5036965;28;20524;-84
2023/08/12 08:10:14;;;;;;;4.07;3.67;;;21.90;99.90;;;;;;5037012;28;20961;-82
2023/08/12 08:12:41;;;;;;;5.50;4.03;;;22.00;99.90;;;;;;5036729;28;20548;-83
2023/08/12 08:15:10;;;;;;;5.10;3.67;;;22.10;99.90;;;;;;5035503;28;20463;-84
2023/08/12 08:17:37;;;;;;;4.33;3.40;;;22.10;99.90;;;;;;5039759;28;20461;-82
2023/08/12 08:20:05;;;;;;;5.20;4.80;;;22.20;99.90;;;;;;5041500;28;20535;-84
2023/08/12 08:22:31;;;;;;;4.90;3.60;;;22.30;99.90;;;;;;5040890;28;20698;-84
2023/08/12 08:24:59;;;;;;;5.33;3.50;;;22.30;99.90;;;;;;5038698;28;20448;-85
2023/08/12 08:27:26;;;;;;;3.00;2.70;;;22.30;99.90;;;;;;5038006;28;20573;-85
2023/08/12 08:29:53;;;;;;;3.97;3.60;;;22.40;99.90;;;;;;5029520;28;20465;-83
2023/08/12 08:32:21;;;;;;;4.03;3.50;;;22.30;99.90;;;;;;5028465;28;20488;-83
2023/08/12 08:34:48;;;;;;;4.37;3.97;;;22.20;99.90;;;;;;5028712;28;20472;-83
2023/08/12 08:37:14;;;;;;;4.23;3.77;;;22.10;99.90;;;;;;5038260;28;21040;-83
2023/08/12 08:39:41;;;;;;;6.37;4.60;;;22.10;99.90;;;;;;5037954;28;20452;-82
2023/08/12 08:42:10;;;;;;;4.37;4.00;;;22.10;99.90;;;;;;5036702;28;20970;-84
2023/08/12 08:44:41;;;;;;;5.70;4.77;;;22.10;99.90;;;;;;5030156;28;20456;-83
2023/08/12 08:47:09;;;;;;;5.27;4.77;;;22.10;99.90;;;;;;5018134;28;20914;-83
2023/08/12 08:49:38;;;;;;;4.80;4.40;;;22.00;99.90;;;;;;5017202;28;20478;-83
2023/08/12 08:52:05;;;;;;;6.13;5.53;;;22.20;99.90;;;;;;5016851;28;20897;-85
2023/08/12 08:54:32;;;;;;;6.27;5.67;;;22.30;99.90;;;;;;5017741;28;20458;-84
2023/08/12 08:56:59;;;;;;;6.60;5.80;;;22.30;99.90;;;;;;5016810;28;20884;-86
2023/08/12 08:59:26;;;;;;;5.93;5.43;;;22.30;99.90;;;;;;5021987;28;20452;-84
2023/08/12 09:01:55;;;;;;;10.10;6.13;;;22.30;99.90;;;;;;5036512;28;20520;-84
2023/08/12 09:04:23;;;;;;;6.40;5.87;;;22.20;99.90;;;;;;5029559;28;20489;-82
2023/08/12 09:06:56;;;;;;;6.27;5.63;;;22.30;99.90;;;;;;5016530;28;20529;-82
2023/08/12 09:09:24;;;;;;;5.83;5.33;;;22.30;99.90;;;;;;5034726;28;20464;-84
2023/08/12 09:11:53;;;;;;;6.40;5.90;;;22.30;99.90;;;;;;5046452;28;20473;-82
2023/08/12 09:14:21;;;;;;;7.17;6.47;;;22.30;99.90;;;;;;5036095;28;20453;-82
2023/08/12 09:16:47;;;;;;;7.07;6.37;;;22.40;99.90;;;;;;5036948;28;20453;-81
2023/08/12 09:19:14;;;;;;;8.03;6.97;;;22.40;99.90;;;;;;5037259;28;20544;-82
2023/08/12 09:21:42;;;;;;;7.40;5.93;;;22.40;99.90;;;;;;5037059;28;20478;-81
2023/08/12 09:24:10;;;;;;;6.20;5.70;;;22.30;99.90;;;;;;5036875;28;20483;-82
2023/08/12 09:26:37;;;;;;;5.90;5.50;;;22.40;99.90;;;;;;5029274;28;20453;-82
2023/08/12 09:29:04;;;;;;;5.73;5.23;;;22.40;99.90;;;;;;5016065;28;20448;-81
2023/08/12 09:31:32;;;;;;;4.97;4.57;;;22.30;99.90;;;;;;5016549;28;20565;-83
2023/08/12 09:34:00;;;;;;;6.40;5.80;;;22.30;99.90;;;;;;5016306;28;20946;-83
2023/08/12 09:36:30;;;;;;;5.10;4.60;;;22.40;99.90;;;;;;5016240;28;20823;-83
2023/08/12 09:38:58;;;;;;;5.10;4.70;;;22.40;99.90;;;;;;5016136;28;20456;-83
2023/08/12 09:41:27;;;;;;;4.67;4.27;;;22.40;99.90;;;;;;5016470;28;20457;-82
2023/08/12 09:43:54;;;;;;;4.27;3.87;;;22.40;99.90;;;;;;5016206;28;20573;-83
2023/08/12 09:46:24;;;;;;;4.23;3.80;;;22.40;99.90;;;;;;5016860;28;20529;-82
2023/08/12 09:48:52;;;;;;;7.83;4.47;;;22.30;99.90;;;;;;5018121;28;20532;-83
2023/08/12 09:51:19;;;;;;;4.73;3.93;;;22.30;99.90;;;;;;5018157;28;20813;-82
2023/08/12 09:53:48;;;;;;;4.57;4.17;;;22.30;99.90;;;;;;5018803;28;20446;-83
2023/08/12 09:56:18;;;;;;;5.70;3.60;;;22.30;99.90;;;;;;5037822;28;20489;-83
2023/08/12 09:58:49;;;;;;;4.10;3.70;;;22.30;99.90;;;;;;5046243;28;20441;-86
2023/08/12 10:01:19;;;;;;;3.70;3.40;;;22.20;99.90;;;;;;5038393;28;20478;-83
2023/08/12 10:03:50;;;;;;;4.10;3.70;;;22.30;99.90;;;;;;5039265;28;20811;-82
2023/08/12 10:06:17;;;;;;;4.77;3.00;;;22.30;99.90;;;;;;5046961;28;20451;-82
2023/08/12 10:08:46;;;;;;;7.93;3.23;;;22.30;99.90;;;;;;5032500;28;20445;-82
2023/08/12 10:11:14;;;;;;;5.10;2.90;;;22.20;99.90;;;;;;5035541;28;20472;-83
2023/08/12 10:13:41;;;;;;;3.00;2.67;;;22.30;99.90;;;;;;5019363;28;20460;-80
2023/08/12 10:16:11;;;;;;;3.20;2.57;;;22.30;99.90;;;;;;5015603;28;20496;-83
2023/08/12 10:18:49;;;;;;;2.90;2.33;;;22.30;99.90;;;;;;5026036;28;20472;-82
2023/08/12 10:21:17;;;;;;;2.63;2.40;;;22.20;99.90;;;;;;5033417;28;20468;-82
2023/08/12 10:23:46;;;;;;;4.43;2.03;;;22.30;99.90;;;;;;5041770;28;20489;-83
2023/08/12 10:26:14;;;;;;;3.80;2.03;;;22.40;99.90;;;;;;5037091;28;20445;-82
2023/08/12 10:28:41;;;;;;;2.63;1.90;;;22.60;99.90;;;;;;5045915;28;20530;-81
2023/08/12 10:31:11;;;;;;;3.03;1.93;;;22.70;99.90;;;;;;5040537;28;20473;-82
2023/08/12 10:33:39;;;;;;;3.10;1.90;;;22.80;99.90;;;;;;5041083;28;20524;-82
2023/08/12 10:36:06;;;;;;;2.50;1.83;;;22.90;99.90;;;;;;5062011;28;21031;-80
2023/08/12 10:38:34;;;;;;;2.07;1.60;;;22.80;99.90;;;;;;5060562;28;20451;-83
2023/08/12 10:41:22;;;;;;;3.60;1.80;;;22.70;99.90;;;;;;5039198;28;20832;-84
2023/08/12 10:43:54;;;;;;;2.43;1.63;;;22.70;99.90;;;;;;5022205;28;20492;-82
2023/08/12 10:46:31;;;;;;;2.77;1.50;;;22.70;99.90;;;;;;5019272;28;20491;-82
2023/08/12 10:49:05;;;;;;;2.07;1.60;;;22.70;99.90;;;;;;5037852;28;20801;-82
2023/08/12 10:51:44;;;;;;;3.40;2.17;;;22.80;99.90;;;;;;5036189;28;20473;-82
2023/08/12 10:54:15;;;;;;;2.80;2.03;;;22.70;99.90;;;;;;5035016;28;20539;-83
2023/08/12 10:57:11;;;;;;;2.53;1.83;;;22.70;99.90;;;;;;5049026;28;20448;-85
2023/08/12 10:59:54;;;;;;;3.60;1.63;;;22.70;99.90;;;;;;5045604;28;20957;-82
2023/08/12 11:02:27;;;;;;;2.20;2.00;;;22.70;99.90;;;;;;5029211;28;20463;-82
2023/08/12 11:04:56;;;;;;;2.90;2.30;;;22.60;99.90;;;;;;5017181;28;20465;-85
2023/08/12 11:07:30;;;;;;;3.10;2.57;;;22.50;99.90;;;;;;5025377;28;20449;-84
2023/08/12 11:10:04;;;;;;;3.47;2.70;;;22.50;99.90;;;;;;5038108;28;20988;-84
2023/08/12 11:12:32;;;;;;;5.27;2.80;;;22.40;99.90;;;;;;5030920;28;20449;-84
2023/08/12 11:15:02;;;;;;;2.53;1.80;;;22.30;99.90;;;;;;5017417;28;20528;-85
2023/08/12 11:17:34;;;;;;;2.77;2.57;;;22.30;99.90;;;;;;5017376;28;20627;-83
2023/08/12 11:20:04;;;;;;;2.07;1.60;;;22.30;99.90;;;;;;5034521;28;20514;-84
2023/08/12 11:22:31;;;;;;;2.50;1.80;;;22.30;99.90;;;;;;5051929;22;20902;-82
2023/08/12 11:24:58;;;;;;;4.97;1.77;;;22.30;99.90;;;;;;5041065;28;20448;-82
2023/08/12 11:27:25;;;;;;;2.37;1.77;;;22.30;99.90;;;;;;5045675;28;20447;-86
2023/08/12 11:29:52;;;;;;;5.60;1.90;;;22.30;99.90;;;;;;5040696;28;20975;-84
2023/08/12 11:32:19;;;;;;;2.53;1.80;;;22.30;99.90;;;;;;5039178;28;20500;-85
2023/08/12 11:34:47;;;;;;;3.70;1.73;;;22.30;99.90;;;;;;5039895;28;20472;-82
2023/08/12 11:37:14;;;;;;;2.50;1.77;;;22.40;99.90;;;;;;5039105;28;20441;-84
2023/08/12 11:39:41;;;;;;;3.30;1.70;;;22.30;99.90;;;;;;5038954;28;20895;-84
2023/08/12 11:42:08;;;;;;;2.23;1.63;;;22.40;99.90;;;;;;5044698;28;20478;-84
2023/08/12 11:44:34;;;;;;;2.47;1.67;;;22.40;99.90;;;;;;5050011;28;20488;-85
2023/08/12 11:47:01;;;;;;;2.07;1.30;;;22.40;99.90;;;;;;5042617;28;20945;-85
2023/08/12 11:49:28;;;;;;;1.70;1.10;;;22.40;99.90;;;;;;5060624;28;20455;-82
2023/08/12 11:51:56;;;;;;;1.90;1.10;;;22.30;99.90;;;;;;5058422;28;20984;-84
2023/08/12 11:54:23;;;;;;;1.50;0.90;;;22.30;99.90;;;;;;5045967;28;20536;-82
2023/08/12 11:56:50;;;;;;;1.57;1.20;;;22.40;99.90;;;;;;5052102;28;20536;-82
2023/08/12 11:59:17;;;;;;;2.33;1.40;;;22.60;99.90;;;;;;5066063;28;20441;-81
2023/08/12 12:01:48;;;;;;;2.07;1.13;;;22.60;99.90;;;;;;5040286;28;20838;-82
2023/08/12 12:04:15;;;;;;;1.67;1.37;;;22.60;99.90;;;;;;5017708;28;20565;-82
2023/08/12 12:06:43;;;;;;;1.90;0.97;;;22.60;99.90;;;;;;5017964;28;20489;-82
2023/08/12 12:09:13;;;;;;;1.60;1.10;;;22.50;99.90;;;;;;5037977;28;20449;-82
2023/08/12 12:11:42;;;;;;;2.80;1.80;;;22.50;99.90;;;;;;5038613;28;20564;-81
2023/08/12 12:14:10;;;;;;;1.90;1.33;;;22.60;99.90;;;;;;5038018;28;20532;-82
2023/08/12 12:16:40;;;;;;;3.00;1.40;;;22.60;99.90;;;;;;5038626;28;20535;-83
2023/08/12 12:19:09;;;;;;;1.80;1.10;;;22.70;99.90;;;;;;5038228;28;20483;-84
2023/08/12 12:21:41;;;;;;;1.50;1.10;;;22.70;99.90;;;;;;5038104;28;20556;-83
2023/08/12 12:24:08;;;;;;;1.83;1.30;;;22.80;99.90;;;;;;5037778;28;20480;-83
2023/08/12 12:26:37;;;;;;;1.80;1.20;;;22.70;99.90;;;;;;5038664;28;20612;-85
2023/08/12 12:29:04;;;;;;;1.77;1.20;;;22.70;99.90;;;;;;5057752;28;20563;-86
2023/08/12 12:31:33;;;;;;;1.70;1.10;;;22.70;99.90;;;;;;5059256;28;20458;-85
2023/08/12 12:34:00;;;;;;;2.30;1.53;;;22.60;99.90;;;;;;5059692;28;21268;-85
2023/08/12 12:36:27;;;;;;;1.70;1.30;;;22.60;99.90;;;;;;5055736;28;20469;-83
2023/08/12 12:38:53;;;;;;;3.17;1.47;;;22.70;99.90;;;;;;5054072;28;20535;-83